sensor_id;sensor_type;location;lat;lon;timestamp;P1;durP1;ratioP1;P2;durP2;ratioP2
75820;SDS011;64454;51.984;9.838;2023-05-14T00:00:22;6.35;;;5.03;;
75820;SDS011;64454;51.984;9.838;2023-05-14T00:02:49;5.95;;;4.90;;
75820;SDS011;64454;51.984;9.838;2023-05-14T00:05:15;5.72;;;4.20;;
75820;SDS011;64454;51.984;9.838;2023-05-14T00:07:42;6.15;;;4.80;;
75820;SDS011;64454;51.984;9.838;2023-05-14T00:10:09;6.53;;;4.60;;
75820;SDS011;64454;51.984;9.838;2023-05-14T00:12:36;5.50;;;4.30;;
75820;SDS011;64454;51.984;9.838;2023-05-14T00:15:03;4.53;;;4.13;;
75820;SDS011;64454;51.984;9.838;2023-05-14T00:17:32;6.57;;;4.60;;
75820;SDS011;64454;51.984;9.838;2023-05-14T00:19:59;5.18;;;4.68;;
75820;SDS011;64454;51.984;9.838;2023-05-14T00:22:26;4.43;;;3.92;;
75820;SDS011;64454;51.984;9.838;2023-05-14T00:24:52;5.70;;;4.30;;
75820;SDS011;64454;51.984;9.838;2023-05-14T00:27:19;6.28;;;5.68;;
75820;SDS011;64454;51.984;9.838;2023-05-14T00:29:46;6.00;;;5.40;;
75820;SDS011;64454;51.984;9.838;2023-05-14T00:32:12;6.50;;;5.70;;
75820;SDS011;64454;51.984;9.838;2023-05-14T00:34:40;6.15;;;4.80;;
75820;SDS011;64454;51.984;9.838;2023-05-14T00:37:07;6.80;;;4.85;;
75820;SDS011;64454;51.984;9.838;2023-05-14T00:39:34;6.38;;;5.78;;
75820;SDS011;64454;51.984;9.838;2023-05-14T00:42:01;5.32;;;4.82;;
75820;SDS011;64454;51.984;9.838;2023-05-14T00:44:28;5.90;;;5.30;;
75820;SDS011;64454;51.984;9.838;2023-05-14T00:46:54;5.88;;;5.28;;
75820;SDS011;64454;51.984;9.838;2023-05-14T00:49:21;6.03;;;5.13;;
75820;SDS011;64454;51.984;9.838;2023-05-14T00:51:50;5.78;;;5.18;;
75820;SDS011;64454;51.984;9.838;2023-05-14T00:54:19;7.15;;;5.25;;
75820;SDS011;64454;51.984;9.838;2023-05-14T00:56:46;6.45;;;5.53;;
75820;SDS011;64454;51.984;9.838;2023-05-14T00:59:14;5.65;;;5.05;;
75820;SDS011;64454;51.984;9.838;2023-05-14T01:01:44;5.80;;;5.20;;
75820;SDS011;64454;51.984;9.838;2023-05-14T01:04:10;6.33;;;4.70;;
75820;SDS011;64454;51.984;9.838;2023-05-14T01:06:41;6.15;;;5.35;;
75820;SDS011;64454;51.984;9.838;2023-05-14T01:09:21;6.82;;;4.85;;
75820;SDS011;64454;51.984;9.838;2023-05-14T01:11:54;6.00;;;5.40;;
75820;SDS011;64454;51.984;9.838;2023-05-14T01:14:32;6.10;;;5.45;;
75820;SDS011;64454;51.984;9.838;2023-05-14T01:17:06;9.68;;;4.95;;
75820;SDS011;64454;51.984;9.838;2023-05-14T01:19:38;6.03;;;5.43;;
75820;SDS011;64454;51.984;9.838;2023-05-14T01:22:08;5.50;;;5.00;;
75820;SDS011;64454;51.984;9.838;2023-05-14T01:24:36;7.15;;;5.95;;
75820;SDS011;64454;51.984;9.838;2023-05-14T01:27:06;6.82;;;5.32;;
75820;SDS011;64454;51.984;9.838;2023-05-14T01:29:44;5.78;;;4.93;;
75820;SDS011;64454;51.984;9.838;2023-05-14T01:32:22;7.57;;;5.30;;
75820;SDS011;64454;51.984;9.838;2023-05-14T01:34:51;5.53;;;5.03;;
75820;SDS011;64454;51.984;9.838;2023-05-14T01:37:21;6.05;;;4.88;;
75820;SDS011;64454;51.984;9.838;2023-05-14T01:39:50;5.75;;;4.70;;
75820;SDS011;64454;51.984;9.838;2023-05-14T01:42:18;5.15;;;4.65;;
75820;SDS011;64454;51.984;9.838;2023-05-14T01:44:46;5.00;;;4.50;;
75820;SDS011;64454;51.984;9.838;2023-05-14T01:47:12;6.20;;;4.40;;
75820;SDS011;64454;51.984;9.838;2023-05-14T01:49:39;5.30;;;4.10;;
75820;SDS011;64454;51.984;9.838;2023-05-14T01:52:06;5.13;;;4.47;;
75820;SDS011;64454;51.984;9.838;2023-05-14T01:54:34;5.13;;;4.18;;
75820;SDS011;64454;51.984;9.838;2023-05-14T01:57:01;4.75;;;4.25;;
75820;SDS011;64454;51.984;9.838;2023-05-14T01:59:28;4.68;;;4.18;;
75820;SDS011;64454;51.984;9.838;2023-05-14T02:01:55;6.88;;;4.32;;
75820;SDS011;64454;51.984;9.838;2023-05-14T02:04:22;4.80;;;4.30;;
75820;SDS011;64454;51.984;9.838;2023-05-14T02:06:49;6.90;;;6.20;;
75820;SDS011;64454;51.984;9.838;2023-05-14T02:09:16;7.57;;;6.47;;
75820;SDS011;64454;51.984;9.838;2023-05-14T02:11:46;6.90;;;5.13;;
75820;SDS011;64454;51.984;9.838;2023-05-14T02:14:13;4.85;;;4.20;;
75820;SDS011;64454;51.984;9.838;2023-05-14T02:16:42;5.10;;;4.60;;
75820;SDS011;64454;51.984;9.838;2023-05-14T02:19:09;5.63;;;4.32;;
75820;SDS011;64454;51.984;9.838;2023-05-14T02:21:36;5.93;;;4.50;;
75820;SDS011;64454;51.984;9.838;2023-05-14T02:24:03;5.20;;;4.60;;
75820;SDS011;64454;51.984;9.838;2023-05-14T02:26:30;10.50;;;4.90;;
75820;SDS011;64454;51.984;9.838;2023-05-14T02:28:59;4.72;;;4.22;;
75820;SDS011;64454;51.984;9.838;2023-05-14T02:31:25;5.13;;;4.30;;
75820;SDS011;64454;51.984;9.838;2023-05-14T02:33:52;4.75;;;4.30;;
75820;SDS011;64454;51.984;9.838;2023-05-14T02:36:19;4.90;;;4.50;;
75820;SDS011;64454;51.984;9.838;2023-05-14T02:38:46;7.32;;;5.47;;
75820;SDS011;64454;51.984;9.838;2023-05-14T02:41:12;5.30;;;4.40;;
75820;SDS011;64454;51.984;9.838;2023-05-14T02:43:39;4.53;;;4.13;;
75820;SDS011;64454;51.984;9.838;2023-05-14T02:46:07;5.50;;;4.50;;
75820;SDS011;64454;51.984;9.838;2023-05-14T02:48:34;5.00;;;4.50;;
75820;SDS011;64454;51.984;9.838;2023-05-14T02:51:01;4.97;;;4.45;;
75820;SDS011;64454;51.984;9.838;2023-05-14T02:53:28;4.82;;;4.30;;
75820;SDS011;64454;51.984;9.838;2023-05-14T02:55:55;4.97;;;4.47;;
75820;SDS011;64454;51.984;9.838;2023-05-14T02:58:21;5.03;;;4.18;;
75820;SDS011;64454;51.984;9.838;2023-05-14T03:00:48;6.97;;;4.50;;
75820;SDS011;64454;51.984;9.838;2023-05-14T03:03:17;5.38;;;4.40;;
75820;SDS011;64454;51.984;9.838;2023-05-14T03:05:45;4.95;;;4.50;;
75820;SDS011;64454;51.984;9.838;2023-05-14T03:08:12;5.20;;;4.70;;
75820;SDS011;64454;51.984;9.838;2023-05-14T03:10:38;8.10;;;4.68;;
75820;SDS011;64454;51.984;9.838;2023-05-14T03:13:05;5.18;;;4.47;;
75820;SDS011;64454;51.984;9.838;2023-05-14T03:15:32;5.20;;;4.38;;
75820;SDS011;64454;51.984;9.838;2023-05-14T03:17:59;4.60;;;4.20;;
75820;SDS011;64454;51.984;9.838;2023-05-14T03:20:27;5.00;;;4.50;;
75820;SDS011;64454;51.984;9.838;2023-05-14T03:22:54;4.60;;;4.20;;
75820;SDS011;64454;51.984;9.838;2023-05-14T03:25:21;5.32;;;4.70;;
75820;SDS011;64454;51.984;9.838;2023-05-14T03:27:48;5.15;;;4.50;;
75820;SDS011;64454;51.984;9.838;2023-05-14T03:30:15;4.68;;;4.28;;
75820;SDS011;64454;51.984;9.838;2023-05-14T03:32:41;5.28;;;4.20;;
75820;SDS011;64454;51.984;9.838;2023-05-14T03:35:09;5.00;;;4.13;;
75820;SDS011;64454;51.984;9.838;2023-05-14T03:37:37;4.97;;;4.47;;
75820;SDS011;64454;51.984;9.838;2023-05-14T03:40:04;4.80;;;4.20;;
75820;SDS011;64454;51.984;9.838;2023-05-14T03:42:32;5.47;;;4.20;;
75820;SDS011;64454;51.984;9.838;2023-05-14T03:44:59;4.47;;;4.00;;
75820;SDS011;64454;51.984;9.838;2023-05-14T03:47:26;5.03;;;4.53;;
75820;SDS011;64454;51.984;9.838;2023-05-14T03:49:53;4.60;;;4.10;;
75820;SDS011;64454;51.984;9.838;2023-05-14T03:52:19;4.72;;;3.85;;
75820;SDS011;64454;51.984;9.838;2023-05-14T03:54:48;4.50;;;4.10;;
75820;SDS011;64454;51.984;9.838;2023-05-14T03:57:14;4.80;;;4.20;;
75820;SDS011;64454;51.984;9.838;2023-05-14T03:59:41;4.43;;;4.03;;
75820;SDS011;64454;51.984;9.838;2023-05-14T04:02:08;5.05;;;4.18;;
75820;SDS011;64454;51.984;9.838;2023-05-14T04:04:35;6.10;;;4.35;;
75820;SDS011;64454;51.984;9.838;2023-05-14T04:07:01;5.07;;;4.10;;
75820;SDS011;64454;51.984;9.838;2023-05-14T04:09:29;5.03;;;4.53;;
75820;SDS011;64454;51.984;9.838;2023-05-14T04:11:57;5.30;;;4.20;;
75820;SDS011;64454;51.984;9.838;2023-05-14T04:16:50;4.40;;;4.00;;
75820;SDS011;64454;51.984;9.838;2023-05-14T04:19:18;5.28;;;4.30;;
75820;SDS011;64454;51.984;9.838;2023-05-14T04:21:46;5.60;;;4.43;;
75820;SDS011;64454;51.984;9.838;2023-05-14T04:24:13;5.37;;;4.60;;
75820;SDS011;64454;51.984;9.838;2023-05-14T04:26:43;4.90;;;4.50;;
75820;SDS011;64454;51.984;9.838;2023-05-14T04:29:11;6.03;;;4.72;;
75820;SDS011;64454;51.984;9.838;2023-05-14T04:31:39;4.97;;;4.57;;
75820;SDS011;64454;51.984;9.838;2023-05-14T04:34:07;4.50;;;4.10;;
75820;SDS011;64454;51.984;9.838;2023-05-14T04:36:34;5.22;;;4.38;;
75820;SDS011;64454;51.984;9.838;2023-05-14T04:39:00;4.47;;;4.07;;
75820;SDS011;64454;51.984;9.838;2023-05-14T04:41:27;5.00;;;4.13;;
75820;SDS011;64454;51.984;9.838;2023-05-14T04:43:54;5.10;;;4.60;;
75820;SDS011;64454;51.984;9.838;2023-05-14T04:46:23;5.47;;;4.25;;
75820;SDS011;64454;51.984;9.838;2023-05-14T04:48:50;5.10;;;4.60;;
75820;SDS011;64454;51.984;9.838;2023-05-14T04:51:17;5.05;;;4.55;;
75820;SDS011;64454;51.984;9.838;2023-05-14T04:53:44;4.97;;;4.47;;
75820;SDS011;64454;51.984;9.838;2023-05-14T04:56:11;7.65;;;4.78;;
75820;SDS011;64454;51.984;9.838;2023-05-14T04:58:37;5.78;;;5.00;;
75820;SDS011;64454;51.984;9.838;2023-05-14T05:01:05;5.57;;;5.03;;
75820;SDS011;64454;51.984;9.838;2023-05-14T05:03:33;4.90;;;4.40;;
75820;SDS011;64454;51.984;9.838;2023-05-14T05:05:59;5.80;;;5.20;;
75820;SDS011;64454;51.984;9.838;2023-05-14T05:08:26;5.68;;;5.07;;
75820;SDS011;64454;51.984;9.838;2023-05-14T05:10:53;6.45;;;5.00;;
75820;SDS011;64454;51.984;9.838;2023-05-14T05:13:20;6.18;;;5.57;;
75820;SDS011;64454;51.984;9.838;2023-05-14T05:15:47;6.47;;;5.13;;
75820;SDS011;64454;51.984;9.838;2023-05-14T05:18:13;5.68;;;5.07;;
75820;SDS011;64454;51.984;9.838;2023-05-14T05:20:41;5.90;;;4.85;;
75820;SDS011;64454;51.984;9.838;2023-05-14T05:23:08;5.75;;;5.15;;
75820;SDS011;64454;51.984;9.838;2023-05-14T05:25:35;5.70;;;5.10;;
75820;SDS011;64454;51.984;9.838;2023-05-14T05:28:02;5.20;;;4.70;;
75820;SDS011;64454;51.984;9.838;2023-05-14T05:30:29;5.40;;;4.90;;
75820;SDS011;64454;51.984;9.838;2023-05-14T05:32:56;7.95;;;5.75;;
75820;SDS011;64454;51.984;9.838;2023-05-14T05:35:23;6.63;;;5.32;;
75820;SDS011;64454;51.984;9.838;2023-05-14T05:37:51;6.65;;;5.20;;
75820;SDS011;64454;51.984;9.838;2023-05-14T05:40:18;6.18;;;5.13;;
75820;SDS011;64454;51.984;9.838;2023-05-14T05:42:44;6.78;;;5.78;;
75820;SDS011;64454;51.984;9.838;2023-05-14T05:45:11;5.32;;;4.82;;
75820;SDS011;64454;51.984;9.838;2023-05-14T05:47:38;5.43;;;4.93;;
75820;SDS011;64454;51.984;9.838;2023-05-14T05:50:05;5.57;;;5.07;;
75820;SDS011;64454;51.984;9.838;2023-05-14T05:52:33;5.03;;;4.53;;
75820;SDS011;64454;51.984;9.838;2023-05-14T05:55:02;8.20;;;5.17;;
75820;SDS011;64454;51.984;9.838;2023-05-14T05:57:29;6.65;;;5.03;;
75820;SDS011;64454;51.984;9.838;2023-05-14T05:59:56;5.55;;;5.05;;
75820;SDS011;64454;51.984;9.838;2023-05-14T06:02:23;5.47;;;4.97;;
75820;SDS011;64454;51.984;9.838;2023-05-14T06:04:49;5.50;;;5.00;;
75820;SDS011;64454;51.984;9.838;2023-05-14T06:07:17;6.07;;;4.67;;
75820;SDS011;64454;51.984;9.838;2023-05-14T06:09:43;5.07;;;4.57;;
75820;SDS011;64454;51.984;9.838;2023-05-14T06:12:11;6.13;;;5.25;;
75820;SDS011;64454;51.984;9.838;2023-05-14T06:14:38;5.50;;;4.97;;
75820;SDS011;64454;51.984;9.838;2023-05-14T06:17:05;6.07;;;5.47;;
75820;SDS011;64454;51.984;9.838;2023-05-14T06:19:32;5.78;;;5.28;;
75820;SDS011;64454;51.984;9.838;2023-05-14T06:21:59;5.90;;;5.40;;
75820;SDS011;64454;51.984;9.838;2023-05-14T06:24:26;7.30;;;5.40;;
75820;SDS011;64454;51.984;9.838;2023-05-14T06:26:53;5.80;;;5.20;;
75820;SDS011;64454;51.984;9.838;2023-05-14T06:29:21;6.45;;;5.85;;
75820;SDS011;64454;51.984;9.838;2023-05-14T06:31:48;5.70;;;5.10;;
75820;SDS011;64454;51.984;9.838;2023-05-14T06:34:16;5.63;;;5.03;;
75820;SDS011;64454;51.984;9.838;2023-05-14T06:36:44;6.37;;;5.77;;
75820;SDS011;64454;51.984;9.838;2023-05-14T06:39:10;8.48;;;5.95;;
75820;SDS011;64454;51.984;9.838;2023-05-14T06:41:37;6.10;;;5.50;;
75820;SDS011;64454;51.984;9.838;2023-05-14T06:44:04;6.38;;;5.53;;
75820;SDS011;64454;51.984;9.838;2023-05-14T06:46:32;6.00;;;5.47;;
75820;SDS011;64454;51.984;9.838;2023-05-14T06:48:59;6.18;;;5.30;;
75820;SDS011;64454;51.984;9.838;2023-05-14T06:51:26;6.60;;;5.90;;
75820;SDS011;64454;51.984;9.838;2023-05-14T06:53:53;6.57;;;5.38;;
75820;SDS011;64454;51.984;9.838;2023-05-14T06:56:20;6.00;;;5.40;;
75820;SDS011;64454;51.984;9.838;2023-05-14T06:58:47;7.13;;;5.97;;
75820;SDS011;64454;51.984;9.838;2023-05-14T07:01:14;7.50;;;6.15;;
75820;SDS011;64454;51.984;9.838;2023-05-14T07:03:43;7.07;;;6.38;;
75820;SDS011;64454;51.984;9.838;2023-05-14T07:06:09;7.40;;;6.70;;
75820;SDS011;64454;51.984;9.838;2023-05-14T07:08:36;8.23;;;7.43;;
75820;SDS011;64454;51.984;9.838;2023-05-14T07:11:04;7.28;;;6.55;;
75820;SDS011;64454;51.984;9.838;2023-05-14T07:13:30;7.70;;;7.00;;
75820;SDS011;64454;51.984;9.838;2023-05-14T07:15:57;7.50;;;6.70;;
75820;SDS011;64454;51.984;9.838;2023-05-14T07:18:24;7.80;;;6.28;;
75820;SDS011;64454;51.984;9.838;2023-05-14T07:20:52;7.13;;;6.43;;
75820;SDS011;64454;51.984;9.838;2023-05-14T07:23:19;8.20;;;7.10;;
75820;SDS011;64454;51.984;9.838;2023-05-14T07:25:46;7.70;;;6.90;;
75820;SDS011;64454;51.984;9.838;2023-05-14T07:28:12;6.45;;;5.80;;
75820;SDS011;64454;51.984;9.838;2023-05-14T07:30:39;9.40;;;6.53;;
75820;SDS011;64454;51.984;9.838;2023-05-14T07:33:06;9.15;;;6.63;;
75820;SDS011;64454;51.984;9.838;2023-05-14T07:35:33;6.07;;;5.28;;
75820;SDS011;64454;51.984;9.838;2023-05-14T07:38:01;6.47;;;5.55;;
75820;SDS011;64454;51.984;9.838;2023-05-14T07:40:29;7.30;;;6.60;;
75820;SDS011;64454;51.984;9.838;2023-05-14T07:42:56;7.82;;;6.90;;
75820;SDS011;64454;51.984;9.838;2023-05-14T07:45:23;7.20;;;6.50;;
75820;SDS011;64454;51.984;9.838;2023-05-14T07:47:50;7.95;;;6.30;;
75820;SDS011;64454;51.984;9.838;2023-05-14T07:50:17;7.37;;;6.37;;
75820;SDS011;64454;51.984;9.838;2023-05-14T07:52:44;7.88;;;6.75;;
75820;SDS011;64454;51.984;9.838;2023-05-14T07:55:12;7.30;;;6.60;;
75820;SDS011;64454;51.984;9.838;2023-05-14T07:57:39;9.10;;;6.70;;
75820;SDS011;64454;51.984;9.838;2023-05-14T08:00:06;7.35;;;6.65;;
75820;SDS011;64454;51.984;9.838;2023-05-14T08:02:34;7.60;;;6.80;;
75820;SDS011;64454;51.984;9.838;2023-05-14T08:05:00;7.90;;;6.17;;
75820;SDS011;64454;51.984;9.838;2023-05-14T08:07:28;8.90;;;6.65;;
75820;SDS011;64454;51.984;9.838;2023-05-14T08:09:55;7.00;;;6.30;;
75820;SDS011;64454;51.984;9.838;2023-05-14T08:12:23;7.50;;;6.47;;
75820;SDS011;64454;51.984;9.838;2023-05-14T08:14:50;6.35;;;5.75;;
75820;SDS011;64454;51.984;9.838;2023-05-14T08:17:17;6.85;;;6.15;;
75820;SDS011;64454;51.984;9.838;2023-05-14T08:19:44;5.83;;;5.23;;
75820;SDS011;64454;51.984;9.838;2023-05-14T08:22:11;5.80;;;5.23;;
75820;SDS011;64454;51.984;9.838;2023-05-14T08:24:38;5.60;;;5.00;;
75820;SDS011;64454;51.984;9.838;2023-05-14T08:27:07;7.40;;;5.60;;
75820;SDS011;64454;51.984;9.838;2023-05-14T08:29:35;8.45;;;4.90;;
75820;SDS011;64454;51.984;9.838;2023-05-14T08:32:02;5.68;;;5.18;;
75820;SDS011;64454;51.984;9.838;2023-05-14T08:34:29;5.30;;;4.80;;
75820;SDS011;64454;51.984;9.838;2023-05-14T08:36:56;5.10;;;4.60;;
75820;SDS011;64454;51.984;9.838;2023-05-14T08:39:23;5.40;;;4.23;;
75820;SDS011;64454;51.984;9.838;2023-05-14T08:41:50;5.60;;;5.00;;
75820;SDS011;64454;51.984;9.838;2023-05-14T08:44:18;5.55;;;4.43;;
75820;SDS011;64454;51.984;9.838;2023-05-14T08:46:54;6.00;;;4.68;;
75820;SDS011;64454;51.984;9.838;2023-05-14T08:49:24;5.47;;;4.57;;
75820;SDS011;64454;51.984;9.838;2023-05-14T08:52:01;6.30;;;4.60;;
75820;SDS011;64454;51.984;9.838;2023-05-14T08:54:29;4.88;;;4.38;;
75820;SDS011;64454;51.984;9.838;2023-05-14T08:56:56;5.23;;;4.40;;
75820;SDS011;64454;51.984;9.838;2023-05-14T08:59:23;5.88;;;4.70;;
75820;SDS011;64454;51.984;9.838;2023-05-14T09:01:51;4.70;;;4.30;;
75820;SDS011;64454;51.984;9.838;2023-05-14T09:04:21;4.90;;;4.05;;
75820;SDS011;64454;51.984;9.838;2023-05-14T09:06:50;4.95;;;4.03;;
75820;SDS011;64454;51.984;9.838;2023-05-14T09:09:19;4.47;;;4.07;;
75820;SDS011;64454;51.984;9.838;2023-05-14T09:11:47;4.40;;;4.00;;
75820;SDS011;64454;51.984;9.838;2023-05-14T09:14:16;4.70;;;4.00;;
75820;SDS011;64454;51.984;9.838;2023-05-14T09:16:46;4.85;;;3.75;;
75820;SDS011;64454;51.984;9.838;2023-05-14T09:19:17;4.00;;;3.60;;
75820;SDS011;64454;51.984;9.838;2023-05-14T09:21:46;3.90;;;3.40;;
75820;SDS011;64454;51.984;9.838;2023-05-14T09:24:18;4.50;;;4.00;;
75820;SDS011;64454;51.984;9.838;2023-05-14T09:26:48;4.78;;;4.07;;
75820;SDS011;64454;51.984;9.838;2023-05-14T09:29:16;4.70;;;4.20;;
75820;SDS011;64454;51.984;9.838;2023-05-14T09:31:45;4.35;;;3.95;;
75820;SDS011;64454;51.984;9.838;2023-05-14T09:34:23;4.30;;;3.90;;
75820;SDS011;64454;51.984;9.838;2023-05-14T09:36:53;4.35;;;3.80;;
75820;SDS011;64454;51.984;9.838;2023-05-14T09:39:22;5.00;;;4.50;;
75820;SDS011;64454;51.984;9.838;2023-05-14T09:41:49;5.47;;;3.50;;
75820;SDS011;64454;51.984;9.838;2023-05-14T09:44:17;4.00;;;3.60;;
75820;SDS011;64454;51.984;9.838;2023-05-14T09:46:46;3.97;;;3.58;;
75820;SDS011;64454;51.984;9.838;2023-05-14T09:49:15;4.32;;;3.63;;
75820;SDS011;64454;51.984;9.838;2023-05-14T09:51:44;4.25;;;3.55;;
75820;SDS011;64454;51.984;9.838;2023-05-14T09:54:11;4.03;;;3.50;;
75820;SDS011;64454;51.984;9.838;2023-05-14T09:56:39;4.65;;;4.03;;
75820;SDS011;64454;51.984;9.838;2023-05-14T09:59:06;4.20;;;3.80;;
75820;SDS011;64454;51.984;9.838;2023-05-14T10:01:33;4.43;;;3.72;;
75820;SDS011;64454;51.984;9.838;2023-05-14T10:04:01;6.20;;;4.40;;
75820;SDS011;64454;51.984;9.838;2023-05-14T10:06:32;5.30;;;4.05;;
75820;SDS011;64454;51.984;9.838;2023-05-14T10:09:04;5.13;;;4.15;;
75820;SDS011;64454;51.984;9.838;2023-05-14T10:11:37;4.03;;;3.63;;
75820;SDS011;64454;51.984;9.838;2023-05-14T10:14:10;3.47;;;3.17;;
75820;SDS011;64454;51.984;9.838;2023-05-14T10:16:46;5.05;;;3.35;;
75820;SDS011;64454;51.984;9.838;2023-05-14T10:19:16;4.15;;;3.75;;
75820;SDS011;64454;51.984;9.838;2023-05-14T10:21:50;4.00;;;3.60;;
75820;SDS011;64454;51.984;9.838;2023-05-14T10:24:22;4.40;;;3.53;;
75820;SDS011;64454;51.984;9.838;2023-05-14T10:26:50;3.70;;;3.30;;
75820;SDS011;64454;51.984;9.838;2023-05-14T10:29:19;3.83;;;3.43;;
75820;SDS011;64454;51.984;9.838;2023-05-14T10:31:57;4.00;;;3.20;;
75820;SDS011;64454;51.984;9.838;2023-05-14T10:34:30;5.40;;;3.40;;
75820;SDS011;64454;51.984;9.838;2023-05-14T10:37:02;3.50;;;3.20;;
75820;SDS011;64454;51.984;9.838;2023-05-14T10:42:20;4.57;;;3.50;;
75820;SDS011;64454;51.984;9.838;2023-05-14T10:44:53;6.20;;;3.60;;
75820;SDS011;64454;51.984;9.838;2023-05-14T10:47:22;4.40;;;3.55;;
75820;SDS011;64454;51.984;9.838;2023-05-14T10:49:52;5.50;;;3.80;;
75820;SDS011;64454;51.984;9.838;2023-05-14T10:52:21;5.20;;;3.60;;
75820;SDS011;64454;51.984;9.838;2023-05-14T10:54:49;3.67;;;3.30;;
75820;SDS011;64454;51.984;9.838;2023-05-14T10:57:20;3.90;;;3.50;;
75820;SDS011;64454;51.984;9.838;2023-05-14T10:59:50;4.00;;;3.60;;
75820;SDS011;64454;51.984;9.838;2023-05-14T11:02:20;4.82;;;3.80;;
75820;SDS011;64454;51.984;9.838;2023-05-14T11:04:51;4.97;;;3.95;;
75820;SDS011;64454;51.984;9.838;2023-05-14T11:07:23;4.20;;;3.80;;
75820;SDS011;64454;51.984;9.838;2023-05-14T11:09:58;4.50;;;3.80;;
75820;SDS011;64454;51.984;9.838;2023-05-14T11:12:30;4.38;;;3.97;;
75820;SDS011;64454;51.984;9.838;2023-05-14T11:14:58;4.03;;;3.28;;
75820;SDS011;64454;51.984;9.838;2023-05-14T11:17:28;5.85;;;3.60;;
75820;SDS011;64454;51.984;9.838;2023-05-14T11:19:56;4.05;;;3.65;;
75820;SDS011;64454;51.984;9.838;2023-05-14T11:22:24;3.97;;;3.42;;
75820;SDS011;64454;51.984;9.838;2023-05-14T11:24:51;4.00;;;3.60;;
75820;SDS011;64454;51.984;9.838;2023-05-14T11:27:20;4.05;;;3.60;;
75820;SDS011;64454;51.984;9.838;2023-05-14T11:29:47;5.97;;;3.95;;
75820;SDS011;64454;51.984;9.838;2023-05-14T11:32:15;4.00;;;3.60;;
75820;SDS011;64454;51.984;9.838;2023-05-14T11:34:44;6.20;;;3.88;;
75820;SDS011;64454;51.984;9.838;2023-05-14T11:37:12;4.10;;;3.70;;
75820;SDS011;64454;51.984;9.838;2023-05-14T11:39:45;4.65;;;3.90;;
75820;SDS011;64454;51.984;9.838;2023-05-14T11:42:14;5.20;;;4.40;;
75820;SDS011;64454;51.984;9.838;2023-05-14T11:44:45;4.85;;;3.50;;
75820;SDS011;64454;51.984;9.838;2023-05-14T11:47:13;5.80;;;4.00;;
75820;SDS011;64454;51.984;9.838;2023-05-14T11:49:42;6.20;;;3.90;;
75820;SDS011;64454;51.984;9.838;2023-05-14T11:52:10;5.75;;;4.00;;
75820;SDS011;64454;51.984;9.838;2023-05-14T11:54:38;4.80;;;3.70;;
75820;SDS011;64454;51.984;9.838;2023-05-14T11:57:07;4.47;;;4.07;;
75820;SDS011;64454;51.984;9.838;2023-05-14T11:59:36;5.07;;;4.57;;
75820;SDS011;64454;51.984;9.838;2023-05-14T12:02:07;5.65;;;4.68;;
75820;SDS011;64454;51.984;9.838;2023-05-14T12:04:35;6.47;;;4.28;;
75820;SDS011;64454;51.984;9.838;2023-05-14T12:07:06;4.88;;;3.90;;
75820;SDS011;64454;51.984;9.838;2023-05-14T12:09:35;5.85;;;4.40;;
75820;SDS011;64454;51.984;9.838;2023-05-14T12:12:07;6.10;;;3.95;;
75820;SDS011;64454;51.984;9.838;2023-05-14T12:14:36;6.43;;;4.00;;
75820;SDS011;64454;51.984;9.838;2023-05-14T12:17:11;5.40;;;4.30;;
75820;SDS011;64454;51.984;9.838;2023-05-14T12:19:41;4.32;;;3.92;;
75820;SDS011;64454;51.984;9.838;2023-05-14T12:22:09;4.90;;;3.70;;
75820;SDS011;64454;51.984;9.838;2023-05-14T12:24:38;4.97;;;3.75;;
75820;SDS011;64454;51.984;9.838;2023-05-14T12:27:06;4.72;;;3.90;;
75820;SDS011;64454;51.984;9.838;2023-05-14T12:29:35;4.97;;;3.70;;
75820;SDS011;64454;51.984;9.838;2023-05-14T12:32:06;3.72;;;3.33;;
75820;SDS011;64454;51.984;9.838;2023-05-14T12:34:36;5.50;;;3.90;;
75820;SDS011;64454;51.984;9.838;2023-05-14T12:37:04;4.90;;;3.97;;
75820;SDS011;64454;51.984;9.838;2023-05-14T12:39:31;5.22;;;3.90;;
75820;SDS011;64454;51.984;9.838;2023-05-14T12:41:59;4.45;;;4.00;;
75820;SDS011;64454;51.984;9.838;2023-05-14T12:44:27;4.20;;;3.80;;
75820;SDS011;64454;51.984;9.838;2023-05-14T12:46:54;4.13;;;3.72;;
75820;SDS011;64454;51.984;9.838;2023-05-14T12:49:21;4.90;;;4.00;;
75820;SDS011;64454;51.984;9.838;2023-05-14T12:51:49;6.32;;;4.20;;
75820;SDS011;64454;51.984;9.838;2023-05-14T12:54:17;6.87;;;3.97;;
75820;SDS011;64454;51.984;9.838;2023-05-14T12:56:45;5.90;;;3.90;;
75820;SDS011;64454;51.984;9.838;2023-05-14T12:59:12;5.60;;;4.00;;
75820;SDS011;64454;51.984;9.838;2023-05-14T13:01:41;4.78;;;3.90;;
75820;SDS011;64454;51.984;9.838;2023-05-14T13:04:08;4.30;;;3.90;;
75820;SDS011;64454;51.984;9.838;2023-05-14T13:06:36;4.15;;;3.70;;
75820;SDS011;64454;51.984;9.838;2023-05-14T13:09:04;4.60;;;4.10;;
75820;SDS011;64454;51.984;9.838;2023-05-14T13:11:32;5.10;;;4.32;;
75820;SDS011;64454;51.984;9.838;2023-05-14T13:14:00;5.50;;;4.00;;
75820;SDS011;64454;51.984;9.838;2023-05-14T13:16:27;4.65;;;3.95;;
75820;SDS011;64454;51.984;9.838;2023-05-14T13:18:55;4.75;;;4.30;;
75820;SDS011;64454;51.984;9.838;2023-05-14T13:21:21;4.00;;;3.60;;
75820;SDS011;64454;51.984;9.838;2023-05-14T13:23:48;5.90;;;3.70;;
75820;SDS011;64454;51.984;9.838;2023-05-14T13:26:16;4.25;;;3.72;;
75820;SDS011;64454;51.984;9.838;2023-05-14T13:28:43;5.80;;;4.30;;
75820;SDS011;64454;51.984;9.838;2023-05-14T13:31:11;4.70;;;3.78;;
75820;SDS011;64454;51.984;9.838;2023-05-14T13:33:40;5.70;;;4.50;;
75820;SDS011;64454;51.984;9.838;2023-05-14T13:36:10;4.07;;;3.67;;
75820;SDS011;64454;51.984;9.838;2023-05-14T13:38:39;4.70;;;3.80;;
75820;SDS011;64454;51.984;9.838;2023-05-14T13:41:06;4.63;;;4.22;;
75820;SDS011;64454;51.984;9.838;2023-05-14T13:43:35;3.70;;;3.40;;
75820;SDS011;64454;51.984;9.838;2023-05-14T13:46:02;5.35;;;3.80;;
75820;SDS011;64454;51.984;9.838;2023-05-14T13:48:30;5.00;;;4.30;;
75820;SDS011;64454;51.984;9.838;2023-05-14T13:50:58;5.07;;;4.40;;
75820;SDS011;64454;51.984;9.838;2023-05-14T13:53:24;4.70;;;3.90;;
75820;SDS011;64454;51.984;9.838;2023-05-14T13:55:51;4.15;;;3.75;;
75820;SDS011;64454;51.984;9.838;2023-05-14T13:58:20;5.13;;;3.70;;
75820;SDS011;64454;51.984;9.838;2023-05-14T14:00:49;4.25;;;3.60;;
75820;SDS011;64454;51.984;9.838;2023-05-14T14:03:17;4.55;;;3.90;;
75820;SDS011;64454;51.984;9.838;2023-05-14T14:05:44;4.60;;;4.20;;
75820;SDS011;64454;51.984;9.838;2023-05-14T14:08:10;5.20;;;3.70;;
75820;SDS011;64454;51.984;9.838;2023-05-14T14:10:37;4.03;;;3.63;;
75820;SDS011;64454;51.984;9.838;2023-05-14T14:13:05;5.25;;;3.80;;
75820;SDS011;64454;51.984;9.838;2023-05-14T14:15:32;6.40;;;4.20;;
75820;SDS011;64454;51.984;9.838;2023-05-14T14:18:00;4.60;;;3.63;;
75820;SDS011;64454;51.984;9.838;2023-05-14T14:20:27;3.90;;;3.50;;
75820;SDS011;64454;51.984;9.838;2023-05-14T14:22:55;6.10;;;3.58;;
75820;SDS011;64454;51.984;9.838;2023-05-14T14:25:21;4.00;;;3.20;;
75820;SDS011;64454;51.984;9.838;2023-05-14T14:27:48;5.93;;;4.10;;
75820;SDS011;64454;51.984;9.838;2023-05-14T14:30:15;3.40;;;3.10;;
75820;SDS011;64454;51.984;9.838;2023-05-14T14:32:43;4.00;;;3.20;;
75820;SDS011;64454;51.984;9.838;2023-05-14T14:35:11;3.70;;;3.40;;
75820;SDS011;64454;51.984;9.838;2023-05-14T14:37:40;8.30;;;3.08;;
75820;SDS011;64454;51.984;9.838;2023-05-14T14:40:09;4.35;;;3.30;;
75820;SDS011;64454;51.984;9.838;2023-05-14T14:42:37;3.15;;;2.60;;
75820;SDS011;64454;51.984;9.838;2023-05-14T14:45:04;3.00;;;2.10;;
75820;SDS011;64454;51.984;9.838;2023-05-14T14:47:32;3.22;;;2.20;;
75820;SDS011;64454;51.984;9.838;2023-05-14T14:49:59;3.80;;;2.30;;
75820;SDS011;64454;51.984;9.838;2023-05-14T14:52:27;3.80;;;2.40;;
75820;SDS011;64454;51.984;9.838;2023-05-14T14:54:54;3.58;;;2.30;;
75820;SDS011;64454;51.984;9.838;2023-05-14T14:57:21;4.40;;;3.05;;